Time;durP1;ratioP1;P1;durP2;ratioP2;P2;SDS_P1;SDS_P2;PMS_P1;PMS_P2;Temp;Humidity;BMP_temperature;BMP_pressure;BME280_temperature;BME280_humidity;BME280_pressure;Samples;Min_cycle;Max_cycle;Signal;HPM_P1;HPM_P2
2022/12/28 00:00:22;;;;;;;12.38;5.38;;;6.00;99.90;;;;;;5060653;28;20036;-79
2022/12/28 00:02:48;;;;;;;11.90;5.40;;;5.90;99.90;;;;;;5043381;28;20123;-79
2022/12/28 00:05:14;;;;;;;11.80;5.57;;;6.00;99.90;;;;;;5061181;28;20504;-79
2022/12/28 00:07:39;;;;;;;12.95;5.30;;;5.90;99.90;;;;;;5079431;28;20064;-79
2022/12/28 00:10:05;;;;;;;10.20;5.50;;;6.10;99.90;;;;;;5060775;28;20414;-79
2022/12/28 00:12:31;;;;;;;9.60;5.18;;;5.90;99.90;;;;;;5078084;28;20044;-79
2022/12/28 00:14:58;;;;;;;11.43;5.35;;;5.90;99.90;;;;;;5059739;28;20492;-79
2022/12/28 00:17:23;;;;;;;8.88;5.75;;;6.10;99.90;;;;;;5058447;28;20097;-79
2022/12/28 00:19:49;;;;;;;11.32;6.20;;;5.80;99.90;;;;;;5058427;28;20041;-79
2022/12/28 00:22:14;;;;;;;14.57;6.30;;;5.80;99.90;;;;;;5057745;28;20037;-79
2022/12/28 00:24:40;;;;;;;10.23;5.85;;;6.10;99.90;;;;;;5058182;28;20036;-79
2022/12/28 00:27:05;;;;;;;8.73;5.03;;;5.80;99.90;;;;;;5058097;28;20071;-79
2022/12/28 00:29:31;;;;;;;13.05;5.22;;;6.10;99.90;;;;;;5057756;28;20040;-79
2022/12/28 00:31:56;;;;;;;14.10;6.40;;;6.00;99.90;;;;;;5057716;28;20391;-78
2022/12/28 00:34:22;;;;;;;9.90;5.70;;;5.80;99.90;;;;;;5058078;28;20178;-79
2022/12/28 00:36:51;;;;;;;17.33;6.13;;;5.80;99.90;;;;;;5057220;28;20045;-79
2022/12/28 00:39:20;;;;;;;13.70;6.70;;;5.80;99.90;;;;;;5056964;28;20051;-79
2022/12/28 00:41:46;;;;;;;13.52;5.70;;;5.70;99.90;;;;;;5057352;28;20473;-79
2022/12/28 00:44:11;;;;;;;12.75;5.85;;;5.70;99.90;;;;;;5058366;28;20072;-79
2022/12/28 00:46:37;;;;;;;11.27;6.43;;;5.90;99.90;;;;;;5074899;28;20115;-79
2022/12/28 00:49:03;;;;;;;9.38;5.60;;;5.70;99.90;;;;;;5076777;28;20058;-79
2022/12/28 00:51:28;;;;;;;11.80;5.88;;;6.00;99.90;;;;;;5057279;28;20037;-79
2022/12/28 00:53:54;;;;;;;11.18;6.18;;;5.70;99.90;;;;;;5056584;28;20052;-79
2022/12/28 00:56:21;;;;;;;13.02;5.78;;;5.70;99.90;;;;;;5074667;28;20041;-78
2022/12/28 00:58:47;;;;;;;13.63;6.68;;;5.90;99.90;;;;;;5056753;28;20103;-79
2022/12/28 01:01:21;;;;;;;14.15;5.95;;;5.80;99.90;;;;;;5058283;28;20032;-79
2022/12/28 01:03:47;;;;;;;12.27;6.00;;;5.80;99.90;;;;;;5060188;28;20532;-79
2022/12/28 01:06:15;;;;;;;10.25;6.35;;;6.00;99.90;;;;;;5062345;28;20045;-79
2022/12/28 01:08:40;;;;;;;14.52;6.72;;;5.80;99.90;;;;;;5065386;28;20502;-79
2022/12/28 01:11:21;;;;;;;12.90;6.60;;;6.00;99.90;;;;;;5046070;28;20048;-79
2022/12/28 01:13:48;;;;;;;12.35;5.95;;;6.00;99.90;;;;;;5081251;28;20500;-79
2022/12/28 01:16:18;;;;;;;11.95;6.32;;;6.10;99.90;;;;;;5061958;28;20524;-79
2022/12/28 01:18:44;;;;;;;13.65;6.95;;;5.80;99.90;;;;;;5057032;28;20036;-79
2022/12/28 01:21:16;;;;;;;12.55;6.40;;;5.90;99.90;;;;;;5058653;28;20379;-79
2022/12/28 01:23:42;;;;;;;10.13;5.55;;;5.80;99.90;;;;;;5057628;28;20035;-79
2022/12/28 01:26:08;;;;;;;14.07;7.30;;;5.90;99.90;;;;;;5057708;28;20076;-79
2022/12/28 01:28:33;;;;;;;11.25;6.00;;;6.00;99.90;;;;;;5057693;28;20036;-79
2022/12/28 01:31:14;;;;;;;8.93;5.40;;;6.10;99.90;;;;;;5057432;28;20040;-79
2022/12/28 01:33:40;;;;;;;12.38;6.05;;;5.90;99.90;;;;;;5052434;28;20075;-79
2022/12/28 01:36:06;;;;;;;11.07;7.47;;;6.00;99.90;;;;;;5056784;28;20029;-79
2022/12/28 01:38:32;;;;;;;11.93;5.38;;;6.10;99.90;;;;;;5056408;28;20033;-79
2022/12/28 01:40:57;;;;;;;9.15;6.22;;;6.00;99.90;;;;;;5056804;28;20124;-79
2022/12/28 01:44:06;;;;;;;12.63;6.50;;;6.00;99.90;;;;;;5040052;28;20036;-79
2022/12/28 01:46:38;;;;;;;12.13;6.00;;;5.90;99.90;;;;;;5040187;28;20052;-80
2022/12/28 01:49:18;;;;;;;9.48;5.97;;;5.90;99.90;;;;;;5056794;28;20044;-80
2022/12/28 01:51:49;;;;;;;12.57;6.70;;;6.00;99.90;;;;;;5066351;28;20048;-80
2022/12/28 01:54:15;;;;;;;11.13;6.90;;;5.90;99.90;;;;;;5052079;28;20033;-80
2022/12/28 01:56:42;;;;;;;11.25;6.40;;;6.00;99.90;;;;;;5068508;28;20036;-79
2022/12/28 01:59:09;;;;;;;9.90;6.60;;;6.00;99.90;;;;;;5067671;28;20037;-79
2022/12/28 02:01:34;;;;;;;20.10;7.95;;;6.00;99.90;;;;;;5070037;28;20051;-79
2022/12/28 02:04:00;;;;;;;13.25;6.88;;;6.10;99.90;;;;;;5088245;28;20037;-79
2022/12/28 02:06:26;;;;;;;15.05;6.90;;;6.30;99.90;;;;;;5067722;28;20688;-79
2022/12/28 02:09:06;;;;;;;13.43;7.50;;;6.10;99.90;;;;;;5055761;28;20044;-79
2022/12/28 02:11:33;;;;;;;10.40;6.93;;;5.90;99.90;;;;;;5074086;28;20044;-80
2022/12/28 02:14:00;;;;;;;12.32;7.03;;;6.10;99.90;;;;;;5055165;28;20090;-79
2022/12/28 02:16:26;;;;;;;13.07;7.38;;;6.10;99.90;;;;;;5073428;28;20120;-79
2022/12/28 02:18:51;;;;;;;12.77;7.60;;;6.30;99.90;;;;;;5055403;28;20146;-80
2022/12/28 02:21:52;;;;;;;14.93;7.95;;;6.00;99.90;;;;;;5055427;28;20482;-80
2022/12/28 02:24:55;;;;;;;11.88;7.40;;;5.90;99.90;;;;;;5055858;28;20097;-79
2022/12/28 02:27:42;;;;;;;15.25;7.53;;;6.20;99.90;;;;;;5055259;28;20461;-79
2022/12/28 02:30:12;;;;;;;14.10;7.68;;;6.00;99.90;;;;;;5059774;28;20049;-79
2022/12/28 02:32:52;;;;;;;15.05;8.02;;;5.90;99.90;;;;;;5063154;28;20064;-79
2022/12/28 02:35:57;;;;;;;12.05;7.47;;;6.00;99.90;;;;;;5057854;28;20612;-79
2022/12/28 02:38:41;;;;;;;15.15;8.10;;;5.90;99.90;;;;;;5034884;28;20056;-79
2022/12/28 02:41:09;;;;;;;;;;;6.20;99.90;;;;;;5040551;28;20083;-79
2022/12/28 02:43:35;;;;;;;15.18;7.15;;;6.10;99.90;;;;;;5056314;28;19916;-79
2022/12/28 02:52:29;;;;;;;11.20;8.02;;;6.00;99.90;;;;;;5056241;28;20040;-79
2022/12/28 02:58:37;;;;;;;11.13;7.05;;;6.10;99.90;;;;;;5055015;28;20087;-79
2022/12/28 03:01:41;;;;;;;11.57;7.03;;;6.10;99.90;;;;;;5053136;28;20510;-79
2022/12/28 03:04:31;;;;;;;13.20;7.30;;;6.00;99.90;;;;;;5054967;28;20463;-79
2022/12/28 03:10:04;;;;;;;9.40;6.68;;;6.30;99.90;;;;;;5055028;28;20044;-79
2022/12/28 03:12:44;;;;;;;11.30;7.93;;;6.10;99.90;;;;;;5055353;28;20068;-79
2022/12/28 03:15:28;;;;;;;11.73;7.10;;;6.30;99.90;;;;;;5059071;28;20090;-79
2022/12/28 03:32:05;;;;;;;13.82;7.90;;;6.20;99.90;;;;;;5054200;28;20048;-81
2022/12/28 03:34:31;;;;;;;13.60;8.05;;;6.40;99.90;;;;;;5054355;28;20452;-79
2022/12/28 03:37:24;;;;;;;10.80;8.57;;;6.40;99.90;;;;;;5054633;28;20055;-79
2022/12/28 03:39:56;;;;;;;13.18;7.65;;;6.50;99.90;;;;;;5054386;28;20040;-79
2022/12/28 03:45:36;;;;;;;12.77;8.15;;;6.30;99.90;;;;;;5061300;28;20051;-79
2022/12/28 03:48:03;;;;;;;10.95;7.38;;;6.30;99.90;;;;;;5060608;28;20040;-79
2022/12/28 03:50:33;;;;;;;14.63;8.93;;;6.40;99.90;;;;;;5063995;28;20123;-79
2022/12/28 03:52:58;;;;;;;9.45;7.57;;;6.40;99.90;;;;;;5066073;28;20040;-79
2022/12/28 03:55:24;;;;;;;14.25;9.57;;;6.40;99.90;;;;;;5065549;28;20047;-80
2022/12/28 03:57:49;;;;;;;16.25;8.32;;;6.60;99.90;;;;;;5060044;28;20044;-79
2022/12/28 04:00:15;;;;;;;11.57;8.95;;;6.60;99.90;;;;;;5059846;28;20116;-79
2022/12/28 04:02:41;;;;;;;12.77;8.93;;;6.50;99.90;;;;;;5059282;28;20033;-79
2022/12/28 04:05:07;;;;;;;13.80;8.40;;;6.70;99.90;;;;;;5059375;28;20437;-79
2022/12/28 04:07:32;;;;;;;14.50;7.78;;;6.50;99.90;;;;;;5042609;28;20124;-79
2022/12/28 04:09:58;;;;;;;12.68;8.50;;;6.60;99.90;;;;;;5058941;28;20040;-79
2022/12/28 04:12:23;;;;;;;11.80;7.18;;;6.80;99.90;;;;;;5058823;28;20109;-79
2022/12/28 04:14:49;;;;;;;10.75;8.10;;;6.80;99.90;;;;;;5042304;28;20123;-79
2022/12/28 04:17:14;;;;;;;9.80;7.63;;;6.80;99.90;;;;;;5058695;28;20570;-78
2022/12/28 04:19:40;;;;;;;15.70;8.63;;;6.70;99.90;;;;;;5058461;28;20041;-79
2022/12/28 04:22:05;;;;;;;12.10;7.35;;;6.60;99.90;;;;;;5058503;28;20038;-79
2022/12/28 04:24:31;;;;;;;13.93;7.95;;;6.70;99.90;;;;;;5058544;28;20406;-79
2022/12/28 04:26:56;;;;;;;14.00;7.60;;;6.90;99.90;;;;;;5058178;28;20520;-79
2022/12/28 04:29:22;;;;;;;13.55;8.05;;;6.90;99.90;;;;;;5057941;28;20130;-78
2022/12/28 04:31:47;;;;;;;10.93;7.13;;;6.90;99.90;;;;;;5058270;28;20040;-80
2022/12/28 04:34:13;;;;;;;12.07;7.07;;;6.70;99.90;;;;;;5058182;28;20044;-79
2022/12/28 04:36:39;;;;;;;10.70;6.53;;;6.90;99.90;;;;;;5058537;28;20040;-79
2022/12/28 04:39:05;;;;;;;7.85;6.57;;;6.80;99.90;;;;;;5058240;28;20474;-79
2022/12/28 04:41:30;;;;;;;9.13;7.05;;;7.00;99.90;;;;;;5058754;28;20068;-79
2022/12/28 04:43:56;;;;;;;10.20;6.78;;;6.80;99.90;;;;;;5057572;28;20170;-78
2022/12/28 04:46:23;;;;;;;8.02;5.93;;;6.70;99.90;;;;;;5057603;28;20136;-79
2022/12/28 04:48:49;;;;;;;9.15;5.78;;;6.80;99.90;;;;;;5057752;28;20056;-79
2022/12/28 04:51:24;;;;;;;9.50;6.32;;;7.00;99.90;;;;;;5057371;28;20433;-79
2022/12/28 04:53:50;;;;;;;8.25;5.85;;;7.00;99.90;;;;;;5057366;28;20116;-79
2022/12/28 04:56:17;;;;;;;10.38;6.20;;;7.00;99.90;;;;;;5057245;28;20563;-79
2022/12/28 04:58:42;;;;;;;7.25;5.78;;;7.10;99.90;;;;;;5057412;28;20414;-79
2022/12/28 05:01:17;;;;;;;9.88;6.82;;;6.90;99.90;;;;;;5057381;28;20038;-79
2022/12/28 05:03:44;;;;;;;8.75;6.75;;;7.10;99.90;;;;;;5040307;28;20482;-79
2022/12/28 05:06:13;;;;;;;9.73;6.97;;;7.00;99.90;;;;;;5057296;28;20040;-79
2022/12/28 05:08:39;;;;;;;11.52;7.20;;;7.00;99.90;;;;;;5057581;28;20494;-78
2022/12/28 05:11:07;;;;;;;9.13;6.22;;;6.90;99.90;;;;;;5057280;28;20098;-79
2022/12/28 05:13:33;;;;;;;10.57;7.00;;;7.00;99.90;;;;;;5044718;28;20044;-78
2022/12/28 05:16:07;;;;;;;11.55;7.30;;;7.30;99.90;;;;;;5064873;28;20573;-79
2022/12/28 05:18:34;;;;;;;10.38;7.60;;;7.10;99.90;;;;;;5043267;28;20086;-78
2022/12/28 05:21:07;;;;;;;9.35;7.03;;;7.20;99.90;;;;;;5058475;28;20047;-78
2022/12/28 05:23:35;;;;;;;10.35;7.63;;;7.10;99.90;;;;;;5057669;28;20040;-78
2022/12/28 05:26:01;;;;;;;10.93;7.93;;;7.10;99.90;;;;;;5056865;28;20068;-79
2022/12/28 05:28:26;;;;;;;13.10;8.77;;;7.30;99.90;;;;;;5057140;28;20044;-79
2022/12/28 05:30:58;;;;;;;12.80;8.73;;;7.10;99.90;;;;;;5057171;28;20044;-78
2022/12/28 05:33:24;;;;;;;14.23;8.68;;;7.30;99.90;;;;;;5056569;28;20046;-78
2022/12/28 05:35:49;;;;;;;14.70;9.30;;;7.30;99.90;;;;;;5040134;28;20127;-78
2022/12/28 05:38:15;;;;;;;12.77;7.95;;;7.30;99.90;;;;;;5075698;28;20036;-78
2022/12/28 05:40:40;;;;;;;14.75;9.68;;;7.30;99.90;;;;;;5057652;28;20047;-78
2022/12/28 05:43:06;;;;;;;13.57;9.45;;;7.30;99.90;;;;;;5056023;28;20079;-77
2022/12/28 05:45:31;;;;;;;13.73;9.68;;;7.20;99.90;;;;;;5057268;28;20066;-78
2022/12/28 05:47:57;;;;;;;15.77;10.30;;;7.30;99.90;;;;;;5056583;28;20087;-78
2022/12/28 05:50:22;;;;;;;17.33;11.90;;;7.50;99.90;;;;;;5057150;28;20478;-78
2022/12/28 05:52:48;;;;;;;17.85;11.65;;;7.30;99.90;;;;;;5056171;28;20044;-77
2022/12/28 05:55:13;;;;;;;16.95;11.80;;;7.40;99.90;;;;;;5055454;28;20049;-78
2022/12/28 05:57:39;;;;;;;18.33;11.57;;;7.30;99.90;;;;;;5039231;28;20041;-78
2022/12/28 06:00:06;;;;;;;16.42;11.77;;;7.50;99.90;;;;;;5056025;28;20051;-78
2022/12/28 06:02:31;;;;;;;19.83;12.95;;;7.50;99.90;;;;;;5038261;28;20039;-78
2022/12/28 06:04:57;;;;;;;18.90;13.27;;;7.50;99.90;;;;;;5054691;28;20040;-78
2022/12/28 06:07:22;;;;;;;22.27;13.60;;;7.50;99.90;;;;;;5054787;28;20490;-78
2022/12/28 06:09:48;;;;;;;22.42;13.93;;;7.50;99.90;;;;;;5055051;28;20036;-78
2022/12/28 06:12:14;;;;;;;25.25;15.55;;;7.80;99.90;;;;;;5055442;28;20032;-78
2022/12/28 06:14:39;;;;;;;22.20;15.52;;;7.60;99.90;;;;;;5054783;28;20453;-78
2022/12/28 06:17:05;;;;;;;24.50;14.93;;;7.80;99.90;;;;;;5038365;28;20040;-78
2022/12/28 06:19:30;;;;;;;24.38;15.93;;;7.70;99.90;;;;;;5055148;28;20054;-78
2022/12/28 06:21:56;;;;;;;24.15;14.88;;;7.70;99.90;;;;;;5038660;28;20609;-78
2022/12/28 06:24:21;;;;;;;25.70;15.88;;;7.90;99.90;;;;;;5054902;28;20032;-78
2022/12/28 06:26:47;;;;;;;22.85;15.35;;;7.70;99.90;;;;;;5055189;28;20142;-78
2022/12/28 06:29:13;;;;;;;23.30;14.90;;;7.80;99.90;;;;;;5054778;28;20041;-78
2022/12/28 06:31:42;;;;;;;22.70;14.65;;;7.90;99.90;;;;;;5054965;28;20044;-78
2022/12/28 06:34:08;;;;;;;18.38;13.43;;;7.90;99.90;;;;;;5054632;28;20044;-78
2022/12/28 06:36:37;;;;;;;18.48;13.60;;;7.80;99.90;;;;;;5057601;28;20521;-78
2022/12/28 06:39:05;;;;;;;16.20;11.65;;;7.90;99.90;;;;;;5060819;28;20113;-78
2022/12/28 06:41:31;;;;;;;15.07;11.07;;;7.90;99.90;;;;;;5057058;28;20113;-78
2022/12/28 06:43:57;;;;;;;17.45;11.75;;;8.00;99.90;;;;;;5054820;28;20442;-77
2022/12/28 06:46:25;;;;;;;18.08;11.27;;;7.90;99.90;;;;;;5054788;28;20041;-78
2022/12/28 06:48:50;;;;;;;14.20;10.80;;;8.00;99.90;;;;;;5055294;28;20076;-78
2022/12/28 06:51:22;;;;;;;18.52;10.68;;;8.00;99.90;;;;;;5055181;28;20079;-78
2022/12/28 06:53:49;;;;;;;15.15;9.63;;;8.10;99.90;;;;;;5054940;28;20130;-78
2022/12/28 06:56:23;;;;;;;14.02;10.27;;;8.00;99.90;;;;;;5054936;28;20409;-78
2022/12/28 06:58:50;;;;;;;14.35;10.10;;;8.00;99.90;;;;;;5055068;28;20047;-78
2022/12/28 07:01:27;;;;;;;14.55;10.13;;;8.00;99.90;;;;;;5038685;28;20032;-77
2022/12/28 07:03:54;;;;;;;15.98;10.07;;;7.90;99.90;;;;;;5054934;28;20478;-78
2022/12/28 07:06:23;;;;;;;14.60;10.88;;;8.00;99.90;;;;;;5054919;28;20055;-78
2022/12/28 07:08:49;;;;;;;16.10;10.73;;;8.00;99.90;;;;;;5037802;28;20049;-78
2022/12/28 07:11:19;;;;;;;17.73;12.43;;;8.00;99.90;;;;;;5038120;28;20041;-78
2022/12/28 07:13:45;;;;;;;16.02;11.07;;;8.10;99.90;;;;;;5038314;28;20557;-78
2022/12/28 07:16:13;;;;;;;15.25;11.52;;;8.10;99.90;;;;;;5039672;28;20119;-78
2022/12/28 07:18:38;;;;;;;21.45;11.75;;;8.00;99.90;;;;;;5058713;28;20048;-78
2022/12/28 07:21:07;;;;;;;15.02;10.45;;;8.20;99.90;;;;;;5058871;28;20028;-78
2022/12/28 07:23:33;;;;;;;15.38;11.25;;;8.10;99.90;;;;;;5042332;28;20036;-78
2022/12/28 07:26:11;;;;;;;17.33;11.48;;;8.10;99.90;;;;;;5058948;28;20045;-79
2022/12/28 07:28:38;;;;;;;15.70;9.95;;;8.20;99.90;;;;;;5058560;28;20080;-78
2022/12/28 07:31:09;;;;;;;17.80;11.07;;;8.10;99.90;;;;;;5058400;28;20099;-78
2022/12/28 07:33:36;;;;;;;15.68;11.00;;;8.10;99.90;;;;;;5057747;28;20460;-78
2022/12/28 07:36:03;;;;;;;17.17;11.50;;;8.10;99.90;;;;;;5041991;28;20036;-78
2022/12/28 07:38:28;;;;;;;17.77;12.00;;;8.20;99.90;;;;;;5058568;28;20041;-78
2022/12/28 07:41:14;;;;;;;18.77;12.02;;;8.20;99.90;;;;;;5058485;28;20044;-78
2022/12/28 07:43:40;;;;;;;20.92;13.48;;;8.20;99.90;;;;;;5057891;28;20100;-78
2022/12/28 07:46:07;;;;;;;21.90;14.18;;;8.20;99.90;;;;;;5076017;28;20049;-79
2022/12/28 07:48:34;;;;;;;23.67;14.15;;;8.30;99.90;;;;;;5057659;28;20048;-78
2022/12/28 07:51:28;;;;;;;22.65;13.35;;;8.30;99.90;;;;;;5058073;28;20490;-78
2022/12/28 07:53:55;;;;;;;21.25;14.48;;;8.30;99.90;;;;;;5040392;28;20056;-79
2022/12/28 07:56:22;;;;;;;25.00;14.57;;;8.40;99.90;;;;;;5057793;28;20044;-78
2022/12/28 07:58:52;;;;;;;27.98;15.40;;;8.40;99.90;;;;;;5061709;28;20036;-78
2022/12/28 08:01:20;;;;;;;21.52;13.75;;;8.50;99.90;;;;;;5066784;28;20051;-78
2022/12/28 08:03:46;;;;;;;23.55;14.52;;;8.40;99.90;;;;;;5061281;28;20037;-78
2022/12/28 08:06:15;;;;;;;23.48;13.98;;;8.50;99.90;;;;;;5042888;28;20037;-78
2022/12/28 08:08:42;;;;;;;26.33;15.18;;;8.50;99.90;;;;;;5059040;28;20040;-78
2022/12/28 08:11:11;;;;;;;26.05;15.63;;;8.50;99.90;;;;;;5058720;28;20072;-78
2022/12/28 08:13:41;;;;;;;22.65;14.80;;;8.50;99.90;;;;;;5041520;28;20127;-78
2022/12/28 08:16:08;;;;;;;23.92;14.90;;;8.50;99.90;;;;;;5058254;28;20040;-78
2022/12/28 08:18:34;;;;;;;22.77;15.23;;;8.50;99.90;;;;;;5057949;28;20051;-78
2022/12/28 08:21:09;;;;;;;25.50;15.18;;;8.50;99.90;;;;;;5058223;28;20033;-77
2022/12/28 08:23:35;;;;;;;22.17;15.15;;;8.50;99.90;;;;;;5040905;28;20086;-78
2022/12/28 08:26:08;;;;;;;22.50;13.80;;;8.60;99.90;;;;;;5058672;28;20045;-79
2022/12/28 08:28:35;;;;;;;18.80;13.57;;;8.60;99.90;;;;;;5058292;28;20099;-79
2022/12/28 08:31:07;;;;;;;20.75;13.68;;;8.50;99.90;;;;;;5042405;28;20147;-79
2022/12/28 08:33:33;;;;;;;21.40;12.93;;;8.60;99.90;;;;;;5058405;28;20043;-78
2022/12/28 08:35:58;;;;;;;21.20;13.57;;;8.60;99.90;;;;;;5058155;28;20040;-78
2022/12/28 08:38:24;;;;;;;20.15;13.63;;;8.60;99.90;;;;;;5058362;28;20047;-79
2022/12/28 08:40:57;;;;;;;18.20;13.43;;;8.60;99.90;;;;;;5077734;28;20029;-78
2022/12/28 08:43:23;;;;;;;21.92;14.02;;;8.60;99.90;;;;;;5059954;28;20040;-78
2022/12/28 08:45:58;;;;;;;21.40;14.18;;;8.60;99.90;;;;;;5061497;28;20050;-78
2022/12/28 08:48:24;;;;;;;20.95;13.23;;;8.60;99.90;;;;;;5059140;28;20527;-79
2022/12/28 08:50:50;;;;;;;23.60;14.68;;;8.60;99.90;;;;;;5058420;28;20040;-78
2022/12/28 08:53:15;;;;;;;17.45;12.02;;;8.70;99.90;;;;;;5058991;28;20052;-78
2022/12/28 08:55:41;;;;;;;18.73;12.55;;;8.60;99.90;;;;;;5058579;28;20123;-79
2022/12/28 08:58:06;;;;;;;16.33;11.25;;;8.70;99.90;;;;;;5059132;28;20454;-80
2022/12/28 09:00:32;;;;;;;15.50;10.27;;;8.70;99.90;;;;;;5058576;28;20075;-81
2022/12/28 09:02:58;;;;;;;15.38;10.50;;;8.80;99.90;;;;;;5042620;28;20128;-81
2022/12/28 09:05:24;;;;;;;17.02;10.85;;;8.70;99.90;;;;;;5079190;28;20040;-81
2022/12/28 09:07:51;;;;;;;14.30;9.63;;;8.70;99.90;;;;;;5043501;28;20100;-79
2022/12/28 09:10:16;;;;;;;12.10;9.05;;;8.70;99.90;;;;;;5076774;28;20402;-79
2022/12/28 09:12:42;;;;;;;12.93;8.73;;;8.80;99.90;;;;;;5058420;28;20033;-79
2022/12/28 09:15:08;;;;;;;15.18;10.07;;;8.80;99.90;;;;;;5058734;28;20040;-80
2022/12/28 09:17:34;;;;;;;12.35;7.65;;;8.80;99.90;;;;;;5061574;28;20032;-80
2022/12/28 09:19:59;;;;;;;11.70;7.28;;;8.70;99.90;;;;;;5068337;28;20036;-79
2022/12/28 09:22:25;;;;;;;10.88;7.60;;;8.80;99.90;;;;;;5062660;28;20033;-79
2022/12/28 09:24:50;;;;;;;10.20;7.20;;;8.80;99.90;;;;;;5059100;28;20097;-79
2022/12/28 09:27:16;;;;;;;11.98;6.32;;;8.80;99.90;;;;;;5077415;28;20033;-80
2022/12/28 09:29:41;;;;;;;10.25;6.43;;;8.70;99.90;;;;;;5058428;28;20486;-79
2022/12/28 09:32:07;;;;;;;9.57;5.63;;;8.80;99.90;;;;;;5058526;28;20037;-80
2022/12/28 09:34:34;;;;;;;7.22;5.50;;;8.80;99.90;;;;;;5058294;28;20043;-81
2022/12/28 09:37:01;;;;;;;8.57;4.93;;;8.80;99.90;;;;;;5058249;28;20048;-79
2022/12/28 09:39:27;;;;;;;8.63;6.03;;;8.70;99.90;;;;;;5057438;28;20099;-78
2022/12/28 09:42:13;;;;;;;8.93;5.43;;;8.90;99.90;;;;;;5057475;28;20037;-79
2022/12/28 09:44:47;;;;;;;9.80;6.53;;;8.80;99.90;;;;;;5057383;28;20086;-79
2022/12/28 09:47:37;;;;;;;9.85;7.00;;;8.80;99.90;;;;;;5058120;28;20044;-79
2022/12/28 09:50:15;;;;;;;10.25;6.75;;;8.90;99.90;;;;;;5057940;28;20068;-79
2022/12/28 09:53:05;;;;;;;10.70;7.00;;;8.80;99.90;;;;;;5042133;28;20102;-81
2022/12/28 09:55:37;;;;;;;9.13;6.70;;;8.80;99.90;;;;;;5056837;28;20068;-81
2022/12/28 09:58:09;;;;;;;9.55;7.10;;;8.90;99.90;;;;;;5056822;28;20066;-80
2022/12/28 10:00:43;;;;;;;8.77;5.93;;;8.90;99.90;;;;;;5055805;28;20072;-78
2022/12/28 10:03:19;;;;;;;14.80;6.82;;;8.90;99.90;;;;;;5054916;28;20048;-78
2022/12/28 10:05:45;;;;;;;9.35;6.18;;;8.90;99.90;;;;;;5039066;28;20486;-78
2022/12/28 10:08:14;;;;;;;11.25;6.80;;;9.00;99.90;;;;;;5055010;28;20043;-78
2022/12/28 10:10:41;;;;;;;13.15;6.20;;;8.90;99.90;;;;;;5055137;28;20040;-78
2022/12/28 10:13:37;;;;;;;8.88;5.78;;;8.80;99.90;;;;;;5054807;28;20083;-78
2022/12/28 10:16:14;;;;;;;7.03;5.07;;;8.90;99.90;;;;;;5055266;28;20111;-78
2022/12/28 10:18:39;;;;;;;9.50;5.85;;;8.90;99.90;;;;;;5054579;28;20037;-78
2022/12/28 10:21:05;;;;;;;8.13;5.68;;;9.00;99.90;;;;;;5054850;28;20044;-78
2022/12/28 10:23:34;;;;;;;10.23;5.82;;;8.90;99.90;;;;;;5055525;28;20072;-78
2022/12/28 10:26:01;;;;;;;7.88;5.72;;;9.10;99.90;;;;;;5057829;28;20036;-78
2022/12/28 10:28:42;;;;;;;9.55;6.05;;;8.90;99.90;;;;;;5054756;28;20040;-78
2022/12/28 10:31:10;;;;;;;10.13;7.10;;;9.00;99.90;;;;;;5053541;28;20040;-81
2022/12/28 10:33:41;;;;;;;13.07;7.80;;;9.00;99.90;;;;;;5055141;28;20053;-79
2022/12/28 10:36:15;;;;;;;13.18;7.68;;;9.10;99.90;;;;;;5056390;28;20545;-80
2022/12/28 10:38:42;;;;;;;11.10;7.80;;;9.00;99.90;;;;;;5065469;28;20494;-79
2022/12/28 10:41:11;;;;;;;13.43;7.40;;;9.00;99.90;;;;;;5056071;28;20162;-80
2022/12/28 10:43:44;;;;;;;13.93;7.80;;;9.00;99.90;;;;;;5055327;28;20498;-79
2022/12/28 10:46:18;;;;;;;11.85;7.90;;;9.10;99.90;;;;;;5056088;28;20041;-79
2022/12/28 10:48:52;;;;;;;12.75;6.93;;;9.00;99.90;;;;;;5055484;28;20478;-79
2022/12/28 10:51:23;;;;;;;12.32;6.93;;;9.10;99.90;;;;;;5058738;28;20036;-80
2022/12/28 10:53:54;;;;;;;10.40;6.80;;;9.10;99.90;;;;;;5059321;28;20096;-79
2022/12/28 10:56:29;;;;;;;9.77;6.95;;;9.10;99.90;;;;;;5059223;28;20059;-79
2022/12/28 10:59:10;;;;;;;8.25;5.72;;;9.20;99.90;;;;;;5056862;28;20046;-80
2022/12/28 11:01:36;;;;;;;10.27;6.43;;;9.10;99.90;;;;;;5077581;28;20043;-80
2022/12/28 11:04:06;;;;;;;9.38;6.20;;;9.20;99.90;;;;;;5082410;28;20199;-80
2022/12/28 11:06:34;;;;;;;8.35;5.38;;;9.20;99.90;;;;;;5058713;28;20052;-80
2022/12/28 11:09:12;;;;;;;8.27;5.00;;;9.20;99.90;;;;;;5062466;28;20051;-79
2022/12/28 11:11:38;;;;;;;6.53;4.75;;;9.20;99.90;;;;;;5059702;28;20032;-79
2022/12/28 11:14:14;;;;;;;6.65;4.53;;;9.20;99.90;;;;;;5060167;28;20456;-80
2022/12/28 11:16:40;;;;;;;7.63;5.38;;;9.20;99.90;;;;;;5057538;28;20103;-80
2022/12/28 11:19:06;;;;;;;9.45;5.00;;;9.20;99.90;;;;;;5061291;28;20037;-80
2022/12/28 11:21:33;;;;;;;6.80;4.78;;;9.30;99.90;;;;;;5082763;28;20516;-80
2022/12/28 11:23:59;;;;;;;6.13;4.80;;;9.30;99.90;;;;;;5062187;28;20028;-79
2022/12/28 11:26:27;;;;;;;9.10;5.07;;;9.40;99.90;;;;;;5062249;28;20032;-79
2022/12/28 11:28:53;;;;;;;8.30;5.07;;;9.20;99.90;;;;;;5078544;28;20051;-79
2022/12/28 11:31:32;;;;;;;10.93;5.38;;;9.30;99.90;;;;;;5079254;28;20099;-79
2022/12/28 11:34:04;;;;;;;8.32;4.90;;;9.30;99.90;;;;;;5078735;28;20052;-80
2022/12/28 11:36:32;;;;;;;7.43;5.00;;;9.30;99.90;;;;;;5062173;28;20040;-82
2022/12/28 11:39:18;;;;;;;7.78;5.25;;;9.30;99.90;;;;;;5078915;28;20111;-81
2022/12/28 11:41:44;;;;;;;7.93;4.75;;;9.30;99.90;;;;;;5078868;28;20047;-81
2022/12/28 11:44:20;;;;;;;6.65;4.97;;;9.40;99.90;;;;;;5083052;28;20039;-80
2022/12/28 11:47:03;;;;;;;8.10;4.65;;;9.30;99.90;;;;;;5081423;28;20436;-81
2022/12/28 11:49:34;;;;;;;6.28;4.60;;;9.40;99.90;;;;;;5084362;28;20454;-81
2022/12/28 11:52:26;;;;;;;9.20;5.18;;;9.30;99.90;;;;;;5083813;28;20055;-81
2022/12/28 11:55:01;;;;;;;5.82;4.88;;;9.40;99.90;;;;;;5070003;28;20113;-80
2022/12/28 11:57:39;;;;;;;7.28;4.80;;;9.30;99.90;;;;;;5083931;28;20040;-81
2022/12/28 12:00:19;;;;;;;5.72;4.13;;;9.30;99.90;;;;;;5099061;28;20452;-80
2022/12/28 12:02:52;;;;;;;4.70;3.58;;;9.40;99.90;;;;;;5078731;28;20105;-80
2022/12/28 12:05:36;;;;;;;4.82;3.45;;;9.40;99.90;;;;;;5079556;28;20411;-80
2022/12/28 12:08:22;;;;;;;5.95;3.80;;;9.40;99.90;;;;;;5075146;28;20076;-80
2022/12/28 12:11:08;;;;;;;5.40;3.40;;;9.30;99.90;;;;;;5021885;28;20125;-79
2022/12/28 12:13:41;;;;;;;4.38;3.35;;;9.40;99.90;;;;;;5060316;28;20036;-81
2022/12/28 12:16:39;;;;;;;4.65;3.28;;;9.30;99.90;;;;;;5059585;28;20059;-80
2022/12/28 12:19:07;;;;;;;5.38;3.70;;;9.40;99.90;;;;;;5053641;28;20052;-81
2022/12/28 12:21:42;;;;;;;3.97;3.28;;;9.30;99.90;;;;;;5070057;28;20364;-80
2022/12/28 12:24:28;;;;;;;3.80;3.03;;;9.40;99.90;;;;;;5064073;28;20033;-79
2022/12/28 12:27:00;;;;;;;4.70;3.13;;;9.30;99.90;;;;;;5060193;28;20040;-80
2022/12/28 12:29:38;;;;;;;4.95;3.35;;;9.40;99.90;;;;;;5059358;28;20044;-79
2022/12/28 12:32:25;;;;;;;3.95;2.80;;;9.40;99.90;;;;;;5059911;28;20078;-80
2022/12/28 12:35:03;;;;;;;3.78;2.90;;;9.40;99.90;;;;;;5057818;28;20040;-80
2022/12/28 12:37:35;;;;;;;3.85;2.92;;;9.40;99.90;;;;;;5059460;28;20051;-80
2022/12/28 12:40:31;;;;;;;4.45;3.30;;;9.40;99.90;;;;;;5059970;28;20145;-81
2022/12/28 12:43:29;;;;;;;3.88;3.08;;;9.40;99.90;;;;;;5057995;28;20074;-81
2022/12/28 12:46:27;;;;;;;4.28;3.03;;;9.40;99.90;;;;;;5041035;28;20041;-81
2022/12/28 12:49:22;;;;;;;4.35;3.42;;;9.50;99.90;;;;;;5058667;28;20037;-80
2022/12/28 12:52:05;;;;;;;4.40;3.33;;;9.50;99.90;;;;;;5034580;28;20048;-77
2022/12/28 12:55:02;;;;;;;4.22;3.53;;;9.40;99.90;;;;;;5055113;28;20037;-77
2022/12/28 12:58:01;;;;;;;7.38;3.30;;;9.50;99.90;;;;;;5073333;28;20058;-77
2022/12/28 13:00:58;;;;;;;5.70;3.70;;;9.40;99.90;;;;;;5016412;28;20048;-78
2022/12/28 13:03:44;;;;;;;3.90;3.00;;;9.50;99.90;;;;;;5047907;28;20494;-77
2022/12/28 13:06:14;;;;;;;5.57;3.72;;;9.40;99.90;;;;;;5055045;28;20049;-77
2022/12/28 13:08:53;;;;;;;4.57;3.22;;;9.30;99.90;;;;;;5054842;28;20036;-78
2022/12/28 13:11:20;;;;;;;4.35;3.20;;;9.40;99.90;;;;;;5073192;28;20044;-77
2022/12/28 13:13:48;;;;;;;4.38;3.33;;;9.50;99.90;;;;;;5054917;28;20040;-77
2022/12/28 13:16:17;;;;;;;4.45;3.53;;;9.40;99.90;;;;;;5055039;28;20036;-77
2022/12/28 13:19:00;;;;;;;4.53;3.47;;;9.50;99.90;;;;;;5054998;28;20072;-77
2022/12/28 13:21:28;;;;;;;4.20;3.28;;;9.30;99.90;;;;;;5038370;28;20032;-77
2022/12/28 13:23:54;;;;;;;5.93;3.22;;;9.40;99.90;;;;;;5054794;28;20036;-77
2022/12/28 13:26:27;;;;;;;4.18;2.97;;;9.40;99.90;;;;;;5054658;28;20406;-77
2022/12/28 13:29:07;;;;;;;4.75;2.92;;;9.30;99.90;;;;;;5054637;28;20044;-77
2022/12/28 13:31:34;;;;;;;4.32;3.20;;;9.30;99.90;;;;;;5072648;28;20044;-77
2022/12/28 13:34:14;;;;;;;4.53;3.28;;;9.30;99.90;;;;;;5072142;28;20041;-77
2022/12/28 13:36:58;;;;;;;5.53;3.40;;;9.30;99.90;;;;;;5054471;28;20502;-77